createdAt,value
2019-01-11T00:00:50.661Z,15.97
2019-01-11T00:03:19.472Z,15.53
2019-01-11T00:05:47.923Z,18.50
2019-01-11T00:08:16.371Z,20.37
2019-01-11T00:10:44.757Z,17.80
2019-01-11T00:13:13.138Z,18.27
2019-01-11T00:15:41.531Z,17.67
2019-01-11T00:18:10.079Z,16.30
2019-01-11T00:20:38.468Z,18.60
2019-01-11T00:23:06.907Z,18.73
2019-01-11T00:25:35.364Z,17.10
2019-01-11T00:28:04.023Z,21.27
2019-01-11T00:30:32.644Z,21.50
2019-01-11T00:33:01.018Z,17.53
2019-01-11T00:35:29.409Z,18.63
2019-01-11T00:37:57.785Z,19.80
2019-01-11T00:40:26.399Z,19.63
2019-01-11T00:42:54.783Z,16.47
2019-01-11T00:45:23.164Z,16.33
2019-01-11T00:47:51.552Z,20.87
2019-01-11T00:50:21.698Z,20.97
2019-01-11T00:52:50.089Z,19.40
2019-01-11T00:55:18.513Z,17.73
2019-01-11T00:57:46.847Z,19.97
2019-01-11T01:00:18.665Z,21.43
2019-01-11T01:02:47.121Z,18.57
2019-01-11T01:05:15.680Z,22.57
2019-01-11T01:07:44.064Z,18.63
2019-01-11T01:10:12.508Z,18.77
2019-01-11T01:12:40.961Z,19.57
2019-01-11T01:15:11.351Z,17.13
2019-01-11T01:17:39.883Z,20.23
2019-01-11T01:20:13.895Z,16.90
2019-01-11T01:22:42.280Z,19.10
2019-01-11T01:25:11.777Z,21.47
2019-01-11T01:27:41.298Z,20.10
2019-01-11T01:30:15.507Z,19.43
2019-01-11T01:32:44.944Z,19.53
2019-01-11T01:35:13.461Z,17.47
2019-01-11T01:37:42.014Z,18.13
2019-01-11T01:40:13.598Z,15.40
2019-01-11T01:42:42.125Z,18.17
2019-01-11T01:45:15.978Z,20.30
2019-01-11T01:47:44.435Z,17.07
2019-01-11T01:50:13.452Z,19.57
2019-01-11T01:52:41.841Z,18.23
2019-01-11T01:55:12.325Z,17.47
2019-01-11T01:57:40.702Z,19.53
2019-01-11T02:00:12.450Z,16.00
2019-01-11T02:02:40.905Z,19.40
2019-01-11T02:05:10.036Z,15.20
2019-01-11T02:07:38.411Z,16.90
2019-01-11T02:10:09.739Z,18.60
2019-01-11T02:12:38.120Z,18.37
2019-01-11T02:15:07.944Z,16.20
2019-01-11T02:17:36.388Z,21.53
2019-01-11T02:20:13.754Z,14.37
2019-01-11T02:22:42.198Z,19.77
2019-01-11T02:25:10.722Z,17.77
2019-01-11T02:27:39.107Z,17.70
2019-01-11T02:30:13.528Z,20.07
2019-01-11T02:32:41.912Z,18.43
2019-01-11T02:35:10.477Z,16.63
2019-01-11T02:37:38.837Z,20.43
2019-01-11T02:40:09.563Z,22.07
2019-01-11T02:42:37.944Z,18.03
2019-01-11T02:45:09.467Z,16.33
2019-01-11T02:47:37.913Z,21.17
2019-01-11T02:50:08.734Z,19.93
2019-01-11T02:52:37.106Z,21.67
2019-01-11T02:55:07.118Z,19.27
2019-01-11T02:57:35.585Z,16.50
2019-01-11T03:00:16.054Z,20.23
2019-01-11T03:02:44.453Z,17.30
2019-01-11T03:05:14.076Z,19.90
2019-01-11T03:07:42.796Z,16.87
2019-01-11T03:10:16.060Z,16.27
2019-01-11T03:12:44.444Z,19.87
2019-01-11T03:15:13.665Z,16.33
2019-01-11T03:17:42.125Z,20.13
2019-01-11T03:20:12.860Z,16.43
2019-01-11T03:22:41.311Z,19.57
2019-01-11T03:25:12.250Z,19.93
2019-01-11T03:27:40.757Z,19.73
2019-01-11T03:30:17.691Z,21.80
2019-01-11T03:32:46.135Z,20.60
2019-01-11T03:35:15.017Z,18.53
2019-01-11T03:37:44.341Z,17.93
2019-01-11T03:40:14.948Z,17.60
2019-01-11T03:42:43.570Z,14.30
2019-01-11T03:45:14.477Z,15.43
2019-01-11T03:47:43.026Z,17.20
2019-01-11T03:50:14.129Z,14.47
2019-01-11T03:52:42.580Z,18.37
2019-01-11T03:55:13.002Z,18.03
2019-01-11T03:57:41.404Z,18.20
2019-01-11T04:00:15.667Z,19.53
2019-01-11T04:02:45.103Z,22.40
2019-01-11T04:05:13.618Z,20.23
2019-01-11T04:07:42.253Z,20.67
2019-01-11T04:10:14.066Z,21.27
2019-01-11T04:12:42.518Z,20.13
2019-01-11T04:15:13.252Z,23.83
2019-01-11T04:17:41.631Z,21.77
2019-01-11T04:20:18.157Z,22.97
2019-01-11T04:22:48.316Z,20.57
2019-01-11T04:25:18.337Z,20.20
2019-01-11T04:27:46.708Z,21.07
2019-01-11T04:30:16.038Z,21.07
2019-01-11T04:32:44.412Z,23.67
2019-01-11T04:35:12.973Z,22.37
2019-01-11T04:37:41.352Z,25.93
2019-01-11T04:40:11.170Z,23.80
2019-01-11T04:42:39.548Z,22.07
2019-01-11T04:45:09.372Z,22.00
2019-01-11T04:47:37.754Z,23.90
2019-01-11T04:50:09.501Z,25.67
2019-01-11T04:52:38.202Z,23.13
2019-01-11T04:55:07.297Z,20.83
2019-01-11T04:57:35.741Z,24.90
2019-01-11T05:00:12.929Z,20.77
2019-01-11T05:02:41.485Z,23.77
2019-01-11T05:05:10.024Z,23.33
2019-01-11T05:07:38.411Z,21.60
2019-01-11T05:10:10.332Z,20.17
2019-01-11T05:12:38.723Z,18.43
2019-01-11T05:15:07.741Z,21.13
2019-01-11T05:17:36.117Z,26.33
2019-01-11T05:20:07.936Z,22.33
2019-01-11T05:22:36.331Z,24.30
2019-01-11T05:25:05.641Z,22.73
2019-01-11T05:27:34.029Z,23.67
2019-01-11T05:30:02.485Z,25.43
2019-01-11T05:32:30.869Z,23.67
2019-01-11T05:34:59.431Z,21.90
2019-01-11T05:37:27.829Z,23.37
2019-01-11T05:39:56.206Z,26.57
2019-01-11T05:42:25.560Z,23.90
2019-01-11T05:44:53.929Z,24.87
2019-01-11T05:47:24.247Z,24.07
2019-01-11T05:49:54.579Z,25.77
2019-01-11T05:52:22.949Z,27.37
2019-01-11T05:54:51.344Z,26.13
2019-01-11T05:57:19.723Z,28.07
2019-01-11T05:59:48.116Z,29.57
2019-01-11T06:02:16.494Z,25.67
2019-01-11T06:04:45.451Z,30.03
2019-01-11T06:07:18.421Z,26.17
2019-01-11T06:09:46.813Z,25.60
2019-01-11T06:12:15.199Z,23.47
2019-01-11T06:14:44.526Z,23.40
2019-01-11T06:17:13.081Z,24.50
2019-01-11T06:19:41.516Z,28.77
2019-01-11T06:22:09.896Z,28.83
2019-01-11T06:24:38.274Z,27.37
2019-01-11T06:27:06.797Z,25.87
2019-01-11T06:29:35.188Z,26.83
2019-01-11T06:32:03.646Z,25.10
2019-01-11T06:34:32.144Z,26.67
2019-01-11T06:37:00.534Z,26.17
2019-01-11T06:39:29.164Z,23.53
2019-01-11T06:41:59.197Z,21.30
2019-01-11T06:44:28.759Z,22.13
2019-01-11T06:46:57.151Z,31.00
2019-01-11T06:49:25.562Z,27.17
2019-01-11T06:51:54.321Z,26.53
2019-01-11T06:54:22.700Z,27.00
2019-01-11T06:56:51.086Z,28.40
2019-01-11T06:59:19.710Z,26.03
2019-01-11T07:01:48.128Z,25.83
2019-01-11T07:04:16.576Z,23.50
2019-01-11T07:06:44.956Z,24.53
2019-01-11T07:09:13.350Z,27.07
2019-01-11T07:11:41.738Z,26.47
2019-01-11T07:14:10.126Z,25.77
2019-01-11T07:16:38.597Z,27.67
2019-01-11T07:19:07.022Z,26.07
2019-01-11T07:21:35.408Z,26.10
2019-01-11T07:24:03.865Z,24.07
2019-01-11T07:26:32.322Z,25.77
2019-01-11T07:29:00.707Z,25.20
2019-01-11T07:31:29.253Z,25.63
2019-01-11T07:33:57.642Z,27.83
2019-01-11T07:36:29.351Z,26.57
2019-01-11T07:38:57.945Z,30.10
2019-01-11T07:41:26.406Z,27.27
2019-01-11T07:43:54.796Z,27.87
2019-01-11T07:46:23.224Z,25.50
2019-01-11T07:48:51.626Z,27.13
2019-01-11T07:51:21.202Z,28.00
2019-01-11T07:53:49.884Z,23.17
2019-01-11T07:56:18.272Z,25.63
2019-01-11T07:58:46.657Z,22.40
2019-01-11T08:01:15.214Z,22.93
2019-01-11T08:03:43.592Z,23.17
2019-01-11T08:06:12.077Z,23.93
2019-01-11T08:08:40.793Z,24.33
2019-01-11T08:11:09.306Z,25.50
2019-01-11T08:13:37.713Z,25.07
2019-01-11T08:16:06.359Z,29.30
2019-01-11T08:18:34.747Z,26.00
2019-01-11T08:21:03.434Z,26.77
2019-01-11T08:23:31.829Z,31.77
2019-01-11T08:26:00.273Z,27.27
2019-01-11T08:28:30.436Z,26.97
2019-01-11T08:30:58.809Z,26.57
2019-01-11T08:33:27.218Z,28.93
2019-01-11T08:35:55.589Z,29.40
2019-01-11T08:38:23.978Z,26.83
2019-01-11T08:40:52.882Z,28.87
2019-01-11T08:43:21.238Z,28.33
2019-01-11T08:45:49.625Z,26.03
2019-01-11T08:48:18.012Z,30.23
2019-01-11T08:50:46.969Z,29.40
2019-01-11T08:53:15.429Z,26.73
2019-01-11T08:55:43.807Z,26.30
2019-01-11T08:58:12.299Z,29.80
2019-01-11T09:00:40.971Z,28.80
2019-01-11T09:03:09.442Z,29.97
2019-01-11T09:05:37.837Z,29.03
2019-01-11T09:08:06.223Z,30.17
2019-01-11T09:10:34.700Z,30.13
2019-01-11T09:13:03.081Z,32.60
2019-01-11T09:15:31.699Z,29.97
2019-01-11T09:18:04.421Z,30.37
2019-01-11T09:20:32.824Z,29.67
2019-01-11T09:23:01.217Z,30.57
2019-01-11T09:25:29.586Z,28.80
2019-01-11T09:27:57.962Z,30.90
2019-01-11T09:30:26.354Z,30.30
2019-01-11T09:32:54.731Z,30.27
2019-01-11T09:35:23.128Z,32.47
2019-01-11T09:37:51.514Z,28.97
2019-01-11T09:40:19.896Z,33.67
2019-01-11T09:42:48.270Z,30.50
2019-01-11T09:45:16.724Z,35.87
2019-01-11T09:47:46.091Z,31.87
2019-01-11T09:50:14.508Z,31.57
2019-01-11T09:52:42.893Z,29.83
2019-01-11T09:55:11.411Z,31.43
2019-01-11T09:57:39.833Z,27.70
2019-01-11T10:00:14.045Z,28.53
2019-01-11T10:02:42.658Z,33.70
2019-01-11T10:05:11.412Z,30.30
2019-01-11T10:07:40.088Z,30.63
2019-01-11T10:10:12.114Z,29.60
2019-01-11T10:12:41.274Z,27.70
2019-01-11T10:15:11.817Z,27.60
2019-01-11T10:17:40.446Z,28.43
2019-01-11T10:20:12.557Z,28.87
2019-01-11T10:22:41.678Z,28.00
2019-01-11T10:25:11.097Z,26.83
2019-01-11T10:27:39.543Z,28.20
2019-01-11T10:30:13.443Z,33.30
2019-01-11T10:32:41.953Z,31.37
2019-01-11T10:35:11.910Z,31.67
2019-01-11T10:37:40.288Z,31.87
2019-01-11T10:40:11.415Z,33.00
2019-01-11T10:42:39.893Z,31.10
2019-01-11T10:45:14.078Z,32.67
2019-01-11T10:47:42.460Z,32.97
2019-01-11T10:50:13.786Z,34.43
2019-01-11T10:52:42.166Z,30.20
2019-01-11T10:55:12.488Z,25.97
2019-01-11T10:57:41.118Z,26.23
2019-01-11T11:00:15.153Z,23.57
2019-01-11T11:02:43.619Z,25.17
2019-01-11T11:05:12.058Z,24.00
2019-01-11T11:07:40.442Z,23.93
2019-01-11T11:10:10.849Z,26.27
2019-01-11T11:12:39.234Z,24.23
2019-01-11T11:15:11.582Z,24.10
2019-01-11T11:17:40.101Z,28.60
2019-01-11T11:20:13.472Z,28.97
2019-01-11T11:22:43.201Z,27.47
2019-01-11T11:25:14.694Z,26.03
2019-01-11T11:27:43.075Z,25.60
2019-01-11T11:30:14.021Z,25.77
2019-01-11T11:32:46.831Z,26.23
2019-01-11T11:35:15.215Z,26.43
2019-01-11T11:37:43.589Z,31.40
2019-01-11T11:40:12.105Z,27.97
2019-01-11T11:42:40.485Z,25.30
2019-01-11T11:45:08.945Z,25.83
2019-01-11T11:47:37.329Z,23.63
2019-01-11T11:50:08.926Z,26.97
2019-01-11T11:52:37.319Z,26.77
2019-01-11T11:55:08.051Z,25.93
2019-01-11T11:57:36.443Z,27.07
2019-01-11T12:00:16.785Z,24.73
2019-01-11T12:02:45.239Z,25.80
2019-01-11T12:05:13.803Z,27.17
2019-01-11T12:07:42.498Z,26.30
2019-01-11T12:10:13.249Z,26.80
2019-01-11T12:12:41.725Z,29.17
2019-01-11T12:15:11.863Z,33.33
2019-01-11T12:17:41.170Z,29.13
2019-01-11T12:20:16.411Z,30.33
2019-01-11T12:22:44.810Z,27.97
2019-01-11T12:25:13.249Z,26.33
2019-01-11T12:27:41.637Z,28.40
2019-01-11T12:30:13.656Z,26.03
2019-01-11T12:32:42.035Z,24.77
2019-01-11T12:35:10.430Z,26.20
2019-01-11T12:37:38.829Z,26.87
2019-01-11T12:40:10.362Z,26.70
2019-01-11T12:42:38.988Z,28.03
2019-01-11T12:45:13.116Z,25.47
2019-01-11T12:47:41.506Z,28.30
2019-01-11T12:50:12.920Z,27.13
2019-01-11T12:52:41.339Z,25.37
2019-01-11T12:55:09.830Z,23.80
2019-01-11T12:57:38.211Z,30.30
2019-01-11T13:00:12.254Z,25.50
2019-01-11T13:02:40.631Z,25.93
2019-01-11T13:05:11.186Z,24.90
2019-01-11T13:07:39.630Z,24.77
2019-01-11T13:10:11.123Z,26.37
2019-01-11T13:12:39.514Z,26.23
2019-01-11T13:15:11.234Z,23.80
2019-01-11T13:17:39.634Z,26.47
2019-01-11T13:20:13.399Z,23.50
2019-01-11T13:22:41.793Z,26.40
2019-01-11T13:25:10.319Z,27.90
2019-01-11T13:27:38.715Z,27.07
2019-01-11T13:30:12.532Z,24.60
2019-01-11T13:32:40.994Z,23.87
2019-01-11T13:35:09.805Z,30.97
2019-01-11T13:37:38.185Z,32.00
2019-01-11T13:40:21.120Z,43.03
2019-01-11T13:42:49.780Z,61.97
2019-01-11T13:45:18.310Z,57.13
2019-01-11T13:47:46.758Z,42.40
2019-01-11T13:50:18.200Z,36.77
2019-01-11T13:52:46.576Z,28.73
2019-01-11T13:55:14.960Z,26.63
2019-01-11T13:57:43.360Z,27.63
2019-01-11T14:00:14.730Z,27.47
2019-01-11T14:02:43.156Z,25.13
2019-01-11T14:05:11.689Z,24.40
2019-01-11T14:07:40.144Z,26.63
2019-01-11T14:10:08.601Z,25.40
2019-01-11T14:12:36.981Z,23.80
2019-01-11T14:15:08.015Z,24.23
2019-01-11T14:17:36.393Z,27.77
2019-01-11T14:20:07.230Z,26.57
2019-01-11T14:22:35.615Z,26.97
2019-01-11T14:25:05.674Z,27.60
2019-01-11T14:27:34.074Z,31.53
2019-01-11T14:30:02.517Z,30.53
2019-01-11T14:32:31.141Z,34.90
2019-01-11T14:34:59.534Z,31.97
2019-01-11T14:37:32.269Z,24.23
2019-01-11T14:39:58.027Z,26.77
2019-01-11T14:42:26.428Z,26.07
2019-01-11T14:44:54.806Z,25.27
2019-01-11T14:47:23.202Z,23.83
2019-01-11T14:49:51.593Z,21.90
2019-01-11T14:52:20.507Z,21.60
2019-01-11T14:54:48.958Z,20.87
2019-01-11T14:57:17.338Z,21.23
2019-01-11T14:59:45.723Z,22.23
2019-01-11T15:02:14.105Z,21.83
2019-01-11T15:04:42.501Z,20.87
2019-01-11T15:07:10.885Z,23.27
2019-01-11T15:09:39.287Z,23.03
2019-01-11T15:12:07.673Z,19.43
2019-01-11T15:14:36.081Z,21.70
2019-01-11T15:17:04.454Z,19.70
2019-01-11T15:19:33.132Z,23.23
2019-01-11T15:22:03.517Z,19.97
2019-01-11T15:24:31.909Z,26.63
2019-01-11T15:27:00.300Z,28.20
2019-01-11T15:29:28.681Z,25.80
2019-01-11T15:31:57.299Z,25.00
2019-01-11T15:34:25.675Z,28.27
2019-01-11T15:36:54.065Z,26.37
2019-01-11T15:39:22.447Z,26.57
2019-01-11T15:41:50.837Z,26.67
2019-01-11T15:44:19.223Z,28.67
2019-01-11T15:46:47.628Z,27.20
2019-01-11T15:49:16.082Z,30.83
2019-01-11T15:51:44.466Z,28.83
2019-01-11T15:54:12.849Z,27.33
2019-01-11T15:56:41.235Z,29.23
2019-01-11T15:59:09.637Z,30.93
2019-01-11T16:01:38.024Z,28.67
2019-01-11T16:04:09.345Z,28.53
2019-01-11T16:06:37.791Z,29.23
2019-01-11T16:09:27.047Z,28.33
2019-01-11T16:12:06.856Z,29.50
2019-01-11T16:14:56.495Z,30.70
2019-01-11T16:17:28.063Z,31.07
2019-01-11T16:19:58.421Z,31.13
2019-01-11T16:22:26.807Z,33.00
2019-01-11T16:24:57.263Z,33.17
2019-01-11T16:27:27.686Z,31.60
2019-01-11T16:29:57.043Z,30.27
2019-01-11T16:32:25.483Z,32.67
2019-01-11T16:34:53.867Z,32.97
2019-01-11T16:37:22.255Z,36.57
2019-01-11T16:39:52.577Z,29.67
2019-01-11T16:42:24.198Z,31.87
2019-01-11T16:44:52.631Z,26.13
2019-01-11T16:47:21.122Z,28.87
2019-01-11T16:49:49.503Z,27.70
2019-01-11T16:52:18.133Z,31.03
2019-01-11T16:54:46.520Z,33.77
2019-01-11T16:57:14.909Z,28.57
2019-01-11T16:59:43.302Z,30.60
2019-01-11T17:02:11.701Z,33.77
2019-01-11T17:04:40.314Z,27.43
2019-01-11T17:07:11.823Z,25.63
2019-01-11T17:09:40.217Z,25.43
2019-01-11T17:12:08.629Z,23.50
2019-01-11T17:14:37.019Z,26.63
2019-01-11T17:17:05.395Z,27.77
2019-01-11T17:19:33.801Z,26.73
2019-01-11T17:22:02.196Z,26.30
2019-01-11T17:24:30.590Z,29.73
2019-01-11T17:27:00.882Z,30.37
2019-01-11T17:29:29.288Z,29.83
2019-01-11T17:31:57.943Z,27.50
2019-01-11T17:34:26.941Z,31.83
2019-01-11T17:36:55.576Z,30.57
2019-01-11T17:39:23.968Z,28.63
2019-01-11T17:41:52.405Z,28.10
2019-01-11T17:44:21.703Z,29.63
2019-01-11T17:46:50.123Z,32.20
2019-01-11T17:49:18.512Z,31.70
2019-01-11T17:51:51.964Z,33.50
2019-01-11T17:54:20.353Z,29.60
2019-01-11T17:56:49.831Z,27.80
2019-01-11T17:59:25.277Z,31.57
2019-01-11T18:01:53.679Z,29.43
2019-01-11T18:04:22.094Z,33.97
2019-01-11T18:06:50.542Z,31.93
2019-01-11T18:09:18.922Z,30.67
2019-01-11T18:11:48.281Z,29.33
2019-01-11T18:14:16.686Z,28.37
2019-01-11T18:16:45.083Z,28.50
2019-01-11T18:19:13.479Z,28.97
2019-01-11T18:21:41.871Z,27.83
2019-01-11T18:24:10.320Z,25.00
2019-01-11T18:26:38.700Z,26.63
2019-01-11T18:29:08.090Z,23.97
2019-01-11T18:31:37.483Z,28.10
2019-01-11T18:34:06.789Z,26.30
2019-01-11T18:36:35.185Z,24.43
2019-01-11T18:39:05.094Z,24.17
2019-01-11T18:41:34.471Z,24.80
2019-01-11T18:44:02.937Z,25.97
2019-01-11T18:46:32.340Z,24.37
2019-01-11T18:49:01.662Z,25.37
2019-01-11T18:51:30.044Z,25.03
2019-01-11T18:53:58.433Z,23.43
2019-01-11T18:56:26.836Z,22.47
2019-01-11T18:58:55.217Z,24.30
2019-01-11T19:01:23.604Z,23.60
2019-01-11T19:03:51.984Z,23.70
2019-01-11T19:06:20.392Z,22.17
2019-01-11T19:08:48.787Z,25.40
2019-01-11T19:11:17.196Z,26.13
2019-01-11T19:13:51.498Z,32.23
2019-01-11T19:16:20.146Z,26.07
2019-01-11T19:18:48.693Z,24.50
2019-01-11T19:21:25.034Z,23.97
2019-01-11T19:23:53.427Z,24.60
2019-01-11T19:26:23.985Z,25.03
2019-01-11T19:28:52.374Z,27.40
2019-01-11T19:31:21.706Z,29.87
2019-01-11T19:33:50.141Z,25.93
2019-01-11T19:36:20.520Z,33.03
2019-01-11T19:38:48.966Z,23.10
2019-01-11T19:41:17.354Z,24.53
2019-01-11T19:43:45.768Z,23.37
2019-01-11T19:46:19.882Z,24.27
2019-01-11T19:48:54.302Z,25.63
2019-01-11T19:51:24.612Z,26.77
2019-01-11T19:53:54.951Z,28.20
2019-01-11T19:56:23.354Z,30.23
2019-01-11T19:58:52.721Z,27.93
2019-01-11T20:01:21.158Z,30.03
2019-01-11T20:03:49.574Z,28.00
2019-01-11T20:06:17.960Z,29.43
2019-01-11T20:08:49.614Z,28.97
2019-01-11T20:11:17.967Z,28.03
2019-01-11T20:13:46.360Z,26.63
2019-01-11T20:16:14.786Z,27.73
2019-01-11T20:18:43.152Z,27.27
2019-01-11T20:21:11.603Z,28.13
2019-01-11T20:23:40.195Z,28.17
2019-01-11T20:26:08.669Z,26.50
2019-01-11T20:28:37.169Z,26.60
2019-01-11T20:31:05.620Z,30.37
2019-01-11T20:33:34.042Z,28.33
2019-01-11T20:36:03.893Z,29.07
2019-01-11T20:38:32.284Z,27.20
2019-01-11T20:41:01.605Z,26.90
2019-01-11T20:43:29.988Z,24.40
2019-01-11T20:46:03.343Z,22.70
2019-01-11T20:48:31.942Z,24.20
2019-01-11T20:51:00.347Z,22.43
2019-01-11T20:53:28.803Z,21.63
2019-01-11T20:55:57.189Z,20.57
2019-01-11T20:58:25.576Z,21.40
2019-01-11T21:00:54.121Z,21.03
2019-01-11T21:03:22.504Z,25.13
2019-01-11T21:05:50.977Z,23.33
2019-01-11T21:08:19.357Z,26.67
2019-01-11T21:10:48.933Z,24.17
2019-01-11T21:13:17.323Z,25.67
2019-01-11T21:15:45.770Z,29.83
2019-01-11T21:18:14.151Z,28.40
2019-01-11T21:20:42.536Z,27.70
2019-01-11T21:23:10.955Z,25.47
2019-01-11T21:25:39.414Z,27.57
2019-01-11T21:28:07.819Z,28.90
2019-01-11T21:30:38.715Z,23.37
2019-01-11T21:33:07.092Z,27.40
2019-01-11T21:35:35.566Z,28.77
2019-01-11T21:38:04.037Z,28.83
2019-01-11T21:40:32.425Z,27.93
2019-01-11T21:43:00.808Z,26.17
2019-01-11T21:45:29.270Z,22.07
2019-01-11T21:47:57.658Z,20.90
2019-01-11T21:50:26.552Z,20.57
2019-01-11T21:52:54.933Z,23.30
2019-01-11T21:55:23.662Z,28.50
2019-01-11T21:57:52.186Z,22.87
2019-01-11T22:00:32.238Z,27.27
2019-01-11T22:03:00.687Z,26.07
2019-01-11T22:05:29.147Z,21.70
2019-01-11T22:07:57.528Z,29.87
2019-01-11T22:10:25.985Z,24.53
2019-01-11T22:12:54.438Z,27.60
2019-01-11T22:15:22.907Z,27.53
2019-01-11T22:17:51.350Z,24.83
2019-01-11T22:20:19.914Z,23.73
2019-01-11T22:22:48.369Z,23.10
2019-01-11T22:25:18.268Z,26.27
2019-01-11T22:27:46.712Z,23.13
2019-01-11T22:30:17.689Z,24.23
2019-01-11T22:32:46.080Z,23.87
2019-01-11T22:35:14.534Z,25.67
2019-01-11T22:37:42.931Z,24.20
2019-01-11T22:40:13.954Z,22.43
2019-01-11T22:42:42.350Z,22.77
2019-01-11T22:45:13.069Z,22.83
2019-01-11T22:47:41.615Z,26.67
2019-01-11T22:50:12.246Z,24.70
2019-01-11T22:52:40.872Z,27.40
2019-01-11T22:55:11.870Z,22.13
2019-01-11T22:57:40.412Z,25.23
2019-01-11T23:00:14.501Z,21.77
2019-01-11T23:02:43.224Z,21.60
2019-01-11T23:05:11.847Z,23.57
2019-01-11T23:07:40.234Z,24.33
2019-01-11T23:10:14.491Z,25.17
2019-01-11T23:12:45.073Z,22.20
2019-01-11T23:15:16.707Z,24.23
2019-01-11T23:17:48.430Z,22.90
2019-01-11T23:20:16.843Z,19.27
2019-01-11T23:22:45.199Z,17.10
2019-01-11T23:25:13.585Z,18.97
2019-01-11T23:27:42.210Z,16.67
2019-01-11T23:30:13.813Z,19.43
2019-01-11T23:32:42.193Z,17.27
2019-01-11T23:35:10.921Z,17.70
2019-01-11T23:37:39.317Z,17.03
2019-01-11T23:40:10.936Z,22.17
2019-01-11T23:42:39.394Z,16.77
2019-01-11T23:45:10.619Z,20.53
2019-01-11T23:47:39.014Z,16.97
2019-01-11T23:50:10.604Z,17.40
2019-01-11T23:52:38.997Z,17.73
2019-01-11T23:55:08.820Z,19.07
2019-01-11T23:57:37.210Z,16.83
